Time;durP1;ratioP1;P1;durP2;ratioP2;P2;SDS_P1;SDS_P2;PMS_P1;PMS_P2;Temp;Humidity;BMP_temperature;BMP_pressure;BME280_temperature;BME280_humidity;BME280_pressure;Samples;Min_cycle;Max_cycle;Signal;HPM_P1;HPM_P2
2022/03/16 00:00:18;;;;;;;25.23;12.35;;;;;;;2.31;66.01;91750.13;5054189;28;20044;-68
2022/03/16 00:02:44;;;;;;;17.85;10.13;;;;;;;2.37;65.65;91764.16;5054722;28;20052;-68
2022/03/16 00:05:10;;;;;;;14.77;8.82;;;;;;;2.31;64.73;91758.00;5054684;28;20036;-68
2022/03/16 00:07:36;;;;;;;14.40;8.05;;;;;;;2.34;64.86;91760.16;5054627;28;20033;-68
2022/03/16 00:10:01;;;;;;;11.25;6.22;;;;;;;2.32;64.47;91767.47;5054465;28;20060;-68
2022/03/16 00:12:27;;;;;;;13.23;7.18;;;;;;;2.40;64.79;91763.66;5054519;28;20119;-68
2022/03/16 00:14:52;;;;;;;11.30;6.57;;;;;;;2.36;64.42;91757.28;5053219;28;20037;-68
2022/03/16 00:17:17;;;;;;;11.93;6.53;;;;;;;2.28;65.19;91755.06;5054139;28;20061;-68
2022/03/16 00:19:44;;;;;;;11.52;6.28;;;;;;;2.25;65.96;91766.03;5054464;28;20041;-68
2022/03/16 00:22:10;;;;;;;23.95;8.90;;;;;;;2.18;66.59;91753.06;5054180;28;20442;-68
2022/03/16 00:24:36;;;;;;;28.15;8.88;;;;;;;2.09;67.46;91765.78;5054301;28;20064;-68
2022/03/16 00:27:02;;;;;;;18.98;9.23;;;;;;;1.99;68.16;91741.19;5054275;28;20033;-68
2022/03/16 00:29:27;;;;;;;18.85;8.25;;;;;;;2.12;67.27;91754.00;5054271;28;20033;-68
2022/03/16 00:31:52;;;;;;;12.38;8.13;;;;;;;2.05;67.54;91750.72;5054087;28;20041;-68
2022/03/16 00:34:19;;;;;;;13.02;7.47;;;;;;;2.06;67.43;91752.34;5054087;28;20036;-68
2022/03/16 00:36:45;;;;;;;15.00;7.97;;;;;;;1.96;68.29;91744.28;5053996;28;20098;-67
2022/03/16 00:39:11;;;;;;;11.55;7.72;;;;;;;2.01;68.70;91749.63;5054077;28;20488;-68
2022/03/16 00:41:37;;;;;;;14.20;8.20;;;;;;;2.20;67.34;91747.56;5199100;23;20353;-68
2022/03/16 00:44:04;;;;;;;17.20;8.43;;;;;;;2.26;66.55;91749.25;5050429;28;20052;-67
2022/03/16 00:46:29;;;;;;;15.73;8.77;;;;;;;2.35;66.12;91739.94;5054099;28;20091;-67
2022/03/16 00:48:55;;;;;;;33.90;14.65;;;;;;;2.39;65.95;91739.25;5053828;28;20489;-67
2022/03/16 00:51:21;;;;;;;30.35;15.43;;;;;;;2.43;65.25;91734.31;5053778;28;20569;-67
2022/03/16 00:53:46;;;;;;;23.13;11.52;;;;;;;2.51;64.46;91736.50;5053545;28;20029;-67
2022/03/16 00:56:12;;;;;;;20.48;11.23;;;;;;;2.58;64.07;91731.13;5052371;28;20063;-67
2022/03/16 00:58:38;;;;;;;10.65;7.13;;;;;;;2.62;63.30;91725.13;5052298;28;20033;-67
2022/03/16 01:01:05;;;;;;;12.95;7.05;;;;;;;2.60;62.65;91703.56;5053572;28;20032;-67
2022/03/16 01:03:31;;;;;;;15.93;8.35;;;;;;;2.66;63.03;91707.06;5053378;28;20116;-67
2022/03/16 01:05:56;;;;;;;15.40;9.02;;;;;;;2.64;62.59;91696.78;5053491;28;20111;-67
2022/03/16 01:08:23;;;;;;;13.82;7.50;;;;;;;2.75;61.98;91689.84;5053452;28;20037;-67
2022/03/16 01:10:48;;;;;;;9.82;6.80;;;;;;;2.79;61.40;91684.91;5053081;28;20025;-67
2022/03/16 01:13:14;;;;;;;18.67;9.25;;;;;;;2.80;61.76;91678.59;5053273;28;20047;-67
2022/03/16 01:15:39;;;;;;;10.52;7.03;;;;;;;2.80;60.89;91666.25;5053302;28;20033;-67
2022/03/16 01:18:05;;;;;;;8.35;6.00;;;;;;;2.76;60.81;91656.50;5053181;28;20102;-68
2022/03/16 01:20:31;;;;;;;11.15;6.28;;;;;;;2.81;60.98;91662.59;5053265;28;20029;-67
2022/03/16 01:22:56;;;;;;;12.02;7.10;;;;;;;2.78;61.21;91655.19;5053097;28;20478;-67
2022/03/16 01:25:22;;;;;;;10.38;6.32;;;;;;;2.78;61.63;91651.78;5053148;28;20031;-68
2022/03/16 01:27:47;;;;;;;9.18;5.20;;;;;;;2.70;61.81;91659.06;5053166;28;20104;-68
2022/03/16 01:30:16;;;;;;;7.95;5.30;;;;;;;2.69;62.03;91657.47;5053056;28;20505;-68
2022/03/16 01:32:42;;;;;;;9.38;5.00;;;;;;;2.55;63.05;91650.19;5052945;28;20040;-67
2022/03/16 01:35:08;;;;;;;8.07;5.20;;;;;;;2.53;63.73;91652.25;5052974;28;20094;-67
2022/03/16 01:37:34;;;;;;;11.02;5.55;;;;;;;2.47;64.03;91648.75;5052817;28;20047;-68
2022/03/16 01:40:00;;;;;;;9.40;6.30;;;;;;;2.46;63.99;91641.13;5052287;28;20538;-68
2022/03/16 01:42:26;;;;;;;9.23;5.53;;;;;;;2.35;64.76;91632.28;5052496;28;20514;-68
2022/03/16 01:44:54;;;;;;;8.57;5.40;;;;;;;2.37;64.55;91625.78;5052713;28;20055;-68
2022/03/16 01:47:21;;;;;;;7.18;4.70;;;;;;;2.36;64.84;91611.03;5052925;28;20086;-68
2022/03/16 01:49:48;;;;;;;8.13;5.22;;;;;;;2.32;64.92;91596.81;5052610;28;20112;-68
2022/03/16 01:52:16;;;;;;;8.50;5.05;;;;;;;2.27;64.13;91601.22;5051205;28;20036;-68
2022/03/16 01:54:41;;;;;;;7.35;4.68;;;;;;;2.39;63.51;91607.16;5052567;28;20029;-67
2022/03/16 01:57:09;;;;;;;8.77;5.57;;;;;;;2.35;63.28;91611.28;5052464;28;20493;-67
2022/03/16 01:59:36;;;;;;;11.05;4.40;;;;;;;2.47;62.35;91605.94;5051169;28;20449;-67
2022/03/16 02:02:01;;;;;;;8.35;4.65;;;;;;;2.43;61.69;91591.72;5052387;28;20083;-67
2022/03/16 02:04:28;;;;;;;6.38;4.30;;;;;;;2.38;61.85;91589.81;5052334;28;20025;-68
2022/03/16 02:06:54;;;;;;;6.22;3.90;;;;;;;2.49;61.20;91588.91;5052345;28;20032;-68
2022/03/16 02:09:21;;;;;;;8.00;4.57;;;;;;;2.56;60.98;91576.41;5051000;28;20033;-68
2022/03/16 02:11:47;;;;;;;6.32;4.15;;;;;;;2.64;60.31;91575.94;5052104;28;20025;-67
2022/03/16 02:14:12;;;;;;;11.50;5.35;;;;;;;2.67;60.26;91570.22;5052181;28;20082;-67
2022/03/16 02:16:38;;;;;;;7.88;5.30;;;;;;;2.60;61.23;91584.56;5052065;28;20027;-67
2022/03/16 02:19:03;;;;;;;11.63;4.78;;;;;;;2.45;63.21;91585.19;5052121;28;20025;-67
2022/03/16 02:21:30;;;;;;;7.30;4.55;;;;;;;2.64;59.77;91583.84;5051265;28;20068;-67
2022/03/16 02:23:56;;;;;;;8.35;4.13;;;;;;;2.77;58.99;91581.88;5052220;28;20107;-67
2022/03/16 02:26:26;;;;;;;7.05;3.72;;;;;;;2.81;59.11;91569.84;5052568;28;20135;-67
2022/03/16 02:28:51;;;;;;;6.43;4.20;;;;;;;2.64;60.44;91568.06;5051929;28;20032;-67
2022/03/16 02:31:17;;;;;;;8.57;4.57;;;;;;;2.74;60.73;91569.25;5051883;28;20032;-67
2022/03/16 02:33:43;;;;;;;11.13;5.15;;;;;;;2.65;61.20;91564.41;5051724;28;20035;-67
2022/03/16 02:36:09;;;;;;;10.52;5.25;;;;;;;2.54;61.49;91560.09;5051696;28;20460;-68
2022/03/16 02:38:35;;;;;;;9.13;5.70;;;;;;;2.72;61.27;91568.69;5051756;28;20108;-69
2022/03/16 02:41:00;;;;;;;9.80;5.28;;;;;;;2.80;60.62;91568.25;5051643;28;20036;-68
2022/03/16 02:43:27;;;;;;;9.27;5.95;;;;;;;2.84;60.48;91570.16;5051453;28;20045;-68
2022/03/16 02:45:53;;;;;;;12.32;6.90;;;;;;;2.84;60.06;91564.09;5051611;28;20021;-68
2022/03/16 02:48:18;;;;;;;10.63;5.47;;;;;;;2.83;59.43;91550.16;5051614;28;20056;-69
2022/03/16 02:50:44;;;;;;;10.38;5.53;;;;;;;2.94;58.92;91558.94;5051916;28;20783;-68
2022/03/16 02:53:09;;;;;;;8.50;5.30;;;;;;;2.92;58.08;91563.66;5051766;28;20068;-68
2022/03/16 02:55:35;;;;;;;10.48;5.78;;;;;;;2.94;58.67;91564.22;5051487;28;20057;-68
2022/03/16 02:58:00;;;;;;;11.88;5.57;;;;;;;2.88;58.38;91550.22;5051415;28;20107;-68
2022/03/16 03:00:26;;;;;;;9.55;5.72;;;;;;;2.99;58.34;91551.13;5051462;28;20464;-67
2022/03/16 03:02:53;;;;;;;9.15;5.03;;;;;;;3.06;57.93;91556.97;5051278;28;20558;-68
2022/03/16 03:05:19;;;;;;;11.82;5.75;;;;;;;3.04;58.30;91553.81;5051290;28;20033;-68
2022/03/16 03:07:44;;;;;;;8.55;5.25;;;;;;;3.00;58.46;91552.72;5051607;28;20067;-68
2022/03/16 03:10:10;;;;;;;6.90;4.35;;;;;;;3.06;58.20;91546.47;5051342;28;20021;-68
2022/03/16 03:12:35;;;;;;;7.97;4.80;;;;;;;3.04;58.20;91542.50;5051197;28;20538;-66
2022/03/16 03:15:03;;;;;;;8.45;4.82;;;;;;;3.06;58.73;91535.97;5051251;28;20028;-67
2022/03/16 03:17:28;;;;;;;13.02;6.13;;;;;;;3.05;58.98;91539.63;5051154;28;20495;-67
2022/03/16 03:19:54;;;;;;;10.32;5.47;;;;;;;3.08;58.74;91536.50;5051150;28;20504;-67
2022/03/16 03:22:19;;;;;;;9.73;5.93;;;;;;;3.13;58.59;91544.44;5051112;28;20029;-67
2022/03/16 03:24:44;;;;;;;8.60;4.95;;;;;;;3.13;58.47;91539.16;5051163;28;20037;-67
2022/03/16 03:27:10;;;;;;;7.65;4.72;;;;;;;3.14;58.22;91532.06;5051157;28;20025;-67
2022/03/16 03:29:36;;;;;;;10.95;5.47;;;;;;;3.10;58.40;91531.78;5051318;28;20071;-68
2022/03/16 03:32:01;;;;;;;15.23;6.10;;;;;;;3.08;58.44;91528.63;5050999;28;20025;-68
2022/03/16 03:34:27;;;;;;;13.88;8.45;;;;;;;3.16;58.35;91530.00;5055009;28;20098;-67
2022/03/16 03:36:53;;;;;;;14.57;7.60;;;;;;;3.14;58.39;91524.97;5055134;28;20025;-67
2022/03/16 03:39:18;;;;;;;19.88;11.00;;;;;;;3.13;58.53;91514.72;5055129;28;20033;-67
2022/03/16 03:41:44;;;;;;;27.58;15.50;;;;;;;3.10;58.35;91512.59;5054777;28;20035;-68
2022/03/16 03:44:09;;;;;;;25.00;13.85;;;;;;;3.04;58.53;91503.88;5055517;28;20048;-67
2022/03/16 03:46:35;;;;;;;23.20;13.55;;;;;;;3.13;58.02;91512.88;5070412;28;20039;-67
2022/03/16 03:49:00;;;;;;;14.98;8.02;;;;;;;3.18;57.26;91507.69;5054945;28;20059;-67
2022/03/16 03:51:26;;;;;;;13.65;6.72;;;;;;;3.25;56.73;91508.25;5054788;28;20040;-67
2022/03/16 03:53:51;;;;;;;10.32;6.93;;;;;;;3.17;56.85;91506.09;5054775;28;20047;-67
2022/03/16 03:56:17;;;;;;;13.82;6.95;;;;;;;3.17;57.20;91511.38;5054730;28;20029;-67
2022/03/16 03:58:42;;;;;;;12.30;6.80;;;;;;;3.23;56.94;91507.72;5054848;28;20032;-67
2022/03/16 04:01:08;;;;;;;10.82;6.75;;;;;;;3.25;56.01;91510.09;5054764;28;20033;-67
2022/03/16 04:03:33;;;;;;;16.40;7.75;;;;;;;3.22;56.58;91508.78;5054520;28;20414;-67
2022/03/16 04:06:00;;;;;;;9.43;6.13;;;;;;;3.38;55.76;91511.53;5054637;28;20033;-67
2022/03/16 04:08:25;;;;;;;10.93;5.50;;;;;;;3.40;55.36;91518.13;5054584;28;20510;-66
2022/03/16 04:10:51;;;;;;;10.60;6.20;;;;;;;3.41;54.59;91517.06;5054545;28;20025;-67
2022/03/16 04:13:16;;;;;;;11.80;6.60;;;;;;;3.36;54.88;91522.31;5053112;28;20486;-67
2022/03/16 04:15:41;;;;;;;11.73;6.18;;;;;;;3.32;55.31;91520.44;5054402;28;20410;-67
2022/03/16 04:18:07;;;;;;;10.95;5.70;;;;;;;3.26;55.50;91514.31;5054363;28;20025;-67
2022/03/16 04:20:32;;;;;;;10.85;6.68;;;;;;;3.34;55.17;91516.50;5054358;28;20056;-67
2022/03/16 04:22:58;;;;;;;18.70;7.10;;;;;;;3.26;55.24;91507.22;5054228;28;20029;-67
2022/03/16 04:25:24;;;;;;;14.90;6.82;;;;;;;3.32;55.33;91509.91;5054225;28;20025;-67
2022/03/16 04:27:49;;;;;;;19.15;8.75;;;;;;;3.41;54.67;91503.13;5054189;28;20029;-67
2022/03/16 04:30:14;;;;;;;18.65;8.48;;;;;;;3.45;54.83;91501.59;5054208;28;20029;-66
2022/03/16 04:32:40;;;;;;;13.90;7.65;;;;;;;3.46;55.43;91503.16;5052942;28;20441;-67
2022/03/16 04:35:06;;;;;;;19.13;7.35;;;;;;;3.44;55.36;91494.75;5052875;28;20017;-66
2022/03/16 04:37:32;;;;;;;17.40;8.00;;;;;;;3.44;55.04;91494.75;5053880;28;20025;-66
2022/03/16 04:39:58;;;;;;;17.80;8.00;;;;;;;3.48;55.48;91501.91;5054230;28;20091;-66
2022/03/16 04:42:24;;;;;;;11.25;6.40;;;;;;;3.51;54.62;91500.59;5053667;28;20049;-67
2022/03/16 04:44:50;;;;;;;13.48;7.13;;;;;;;3.45;55.10;91501.59;5053094;28;20075;-66
2022/03/16 04:47:15;;;;;;;14.63;7.97;;;;;;;3.45;55.26;91496.31;5053873;28;20494;-66
2022/03/16 04:49:40;;;;;;;24.67;12.63;;;;;;;3.45;55.59;91498.94;5053847;28;20501;-66
2022/03/16 04:52:06;;;;;;;29.52;16.02;;;;;;;3.46;55.40;91484.75;5053730;28;20025;-67
2022/03/16 04:54:31;;;;;;;35.55;19.60;;;;;;;3.39;55.65;91489.44;5053740;28;20036;-67
2022/03/16 04:56:57;;;;;;;16.38;10.15;;;;;;;3.45;55.73;91480.53;5053625;28;20027;-67
2022/03/16 04:59:22;;;;;;;16.15;9.10;;;;;;;3.36;56.30;91474.97;5053664;28;20036;-67
2022/03/16 05:01:48;;;;;;;16.05;7.72;;;;;;;3.37;56.28;91479.19;5053510;28;20065;-67
2022/03/16 05:04:14;;;;;;;10.50;6.68;;;;;;;3.34;56.45;91477.06;5053060;28;20025;-67
2022/03/16 05:06:39;;;;;;;17.27;7.18;;;;;;;3.22;56.76;91455.41;5053342;28;20033;-67
2022/03/16 05:09:05;;;;;;;14.90;8.18;;;;;;;3.33;56.50;91456.28;5053363;28;20624;-67
2022/03/16 05:11:30;;;;;;;16.95;9.05;;;;;;;3.42;56.80;91462.63;5053230;28;20029;-67
2022/03/16 05:13:56;;;;;;;16.33;8.57;;;;;;;3.42;56.85;91465.28;5053214;28;20060;-68
2022/03/16 05:16:22;;;;;;;12.13;7.22;;;;;;;3.30;57.31;91457.53;5053104;28;20071;-67
2022/03/16 05:18:47;;;;;;;16.23;9.07;;;;;;;3.40;57.38;91460.25;5053211;28;20033;-64
2022/03/16 05:21:14;;;;;;;19.98;8.23;;;;;;;3.43;57.51;91461.59;5052977;28;20532;-67
2022/03/16 05:23:40;;;;;;;29.25;9.05;;;;;;;3.48;57.68;91459.81;5053061;28;20037;-67
2022/03/16 05:26:06;;;;;;;17.17;7.43;;;;;;;3.53;57.89;91451.16;5052976;28;20559;-67
2022/03/16 05:28:32;;;;;;;25.33;8.90;;;;;;;3.51;58.11;91453.25;5052925;28;20054;-67
2022/03/16 05:30:57;;;;;;;31.75;9.15;;;;;;;3.53;58.44;91461.69;5052881;28;20052;-67
2022/03/16 05:33:24;;;;;;;32.28;10.68;;;;;;;3.59;57.83;91448.28;5047250;28;20041;-65
2022/03/16 05:35:50;;;;;;;43.28;15.32;;;;;;;3.61;57.93;91456.72;5030516;28;20064;-64
2022/03/16 05:38:16;;;;;;;37.08;11.77;;;;;;;3.63;57.63;91447.78;5032571;28;20048;-64
2022/03/16 05:40:42;;;;;;;34.20;12.73;;;;;;;3.56;58.56;91442.75;5032501;28;20037;-65
2022/03/16 05:43:09;;;;;;;30.25;13.20;;;;;;;3.79;58.36;91447.66;5032280;28;20052;-64
2022/03/16 05:45:35;;;;;;;24.95;11.98;;;;;;;3.85;57.85;91443.19;5032681;28;20098;-64
2022/03/16 05:48:00;;;;;;;26.63;12.38;;;;;;;4.03;57.02;91440.13;5032384;28;20445;-64
2022/03/16 05:50:28;;;;;;;22.48;9.98;;;;;;;4.15;56.52;91437.28;5031888;28;20028;-65
2022/03/16 05:52:58;;;;;;;22.13;9.63;;;;;;;4.29;56.07;91441.03;5031040;28;20035;-64
2022/03/16 05:55:23;;;;;;;16.15;8.23;;;;;;;4.40;55.48;91434.75;5032302;28;20450;-64
2022/03/16 05:57:50;;;;;;;14.45;7.88;;;;;;;4.57;54.75;91436.38;5031287;28;20033;-64
2022/03/16 06:00:17;;;;;;;23.02;10.07;;;;;;;4.62;54.39;91431.91;5032190;28;20038;-64
2022/03/16 06:02:46;;;;;;;25.13;13.05;;;;;;;4.73;54.69;91432.72;5031952;28;20037;-64
2022/03/16 06:05:12;;;;;;;24.83;10.88;;;;;;;4.76;54.29;91426.94;5031678;28;20491;-64
2022/03/16 06:07:38;;;;;;;22.90;12.75;;;;;;;4.78;54.33;91430.91;5032230;28;20446;-64
2022/03/16 06:10:08;;;;;;;26.40;12.60;;;;;;;4.80;54.31;91425.38;5032148;28;20037;-64
2022/03/16 06:12:48;;;;;;;36.63;13.65;;;;;;;4.82;54.13;91426.69;5031825;28;20030;-64
2022/03/16 06:15:13;;;;;;;30.10;12.25;;;;;;;4.97;53.61;91418.00;5031944;28;20030;-64
2022/03/16 06:17:39;;;;;;;26.95;11.40;;;;;;;5.01;54.63;91416.44;5031910;28;20021;-64
2022/03/16 06:20:05;;;;;;;22.67;8.88;;;;;;;5.10;52.65;91411.44;5031581;28;20491;-64
2022/03/16 06:22:30;;;;;;;25.85;11.48;;;;;;;5.24;52.83;91406.44;5031931;28;20048;-63
2022/03/16 06:24:55;;;;;;;20.08;10.73;;;;;;;5.27;52.56;91405.91;5031671;28;20061;-63
2022/03/16 06:27:21;;;;;;;30.10;13.52;;;;;;;5.45;52.37;91413.28;5031695;28;20022;-64
2022/03/16 06:29:46;;;;;;;23.98;12.38;;;;;;;5.44;53.15;91400.34;5031674;28;20037;-63
2022/03/16 06:32:12;;;;;;;22.77;12.13;;;;;;;5.63;51.26;91399.53;5031744;28;20140;-63
2022/03/16 06:34:37;;;;;;;33.58;15.73;;;;;;;5.70;51.38;91384.22;5031108;28;20025;-63
2022/03/16 06:37:03;;;;;;;31.63;16.35;;;;;;;5.85;51.48;91385.25;5031348;28;20024;-63
2022/03/16 06:39:28;;;;;;;40.10;14.85;;;;;;;5.90;51.48;91383.41;5031939;28;20116;-64
2022/03/16 06:41:54;;;;;;;49.05;14.02;;;;;;;6.06;51.99;91372.78;5030949;28;20033;-64
2022/03/16 06:44:19;;;;;;;40.58;12.90;;;;;;;6.02;52.50;91351.41;5031333;28;20129;-63
2022/03/16 06:46:47;;;;;;;29.27;11.75;;;;;;;6.13;51.73;91360.06;5031314;28;20052;-63
2022/03/16 06:49:12;;;;;;;35.97;11.85;;;;;;;6.13;52.04;91354.78;5031267;28;20109;-63
2022/03/16 06:51:38;;;;;;;41.95;18.73;;;;;;;5.90;52.82;91350.91;5030748;28;20388;-65
2022/03/16 06:54:03;;;;;;;40.47;17.17;;;;;;;6.06;52.68;91354.28;5031255;28;20102;-65
2022/03/16 06:56:29;;;;;;;31.50;17.10;;;;;;;6.17;52.09;91361.91;5031180;28;20018;-65
2022/03/16 06:58:54;;;;;;;76.97;23.60;;;;;;;6.09;54.92;91364.31;5031151;28;20041;-64
2022/03/16 07:01:20;;;;;;;42.83;24.48;;;;;;;5.79;57.27;91362.53;5030829;28;20132;-65
2022/03/16 07:03:45;;;;;;;57.40;33.95;;;;;;;5.62;56.81;91368.91;5030910;28;20163;-65
2022/03/16 07:06:11;;;;;;;61.88;27.13;;;;;;;5.49;56.35;91366.03;5030607;28;20091;-65
2022/03/16 07:08:37;;;;;;;73.13;28.50;;;;;;;5.64;57.04;91358.09;5030669;28;20440;-65
2022/03/16 07:11:02;;;;;;;75.72;23.02;;;;;;;5.74;53.81;91362.56;5031093;28;20062;-64
2022/03/16 07:13:28;;;;;;;11.07;7.03;;;;;;;5.84;51.70;91370.44;5030783;28;20037;-64
2022/03/16 07:15:53;;;;;;;20.88;9.95;;;;;;;6.07;51.19;91366.44;5030812;28;20026;-65
2022/03/16 07:18:23;;;;;;;14.57;9.70;;;;;;;6.19;50.93;91382.78;5031112;28;20049;-64
2022/03/16 07:20:49;;;;;;;31.13;15.88;;;;;;;6.22;50.89;91384.88;5030398;28;20036;-64
2022/03/16 07:23:17;;;;;;;26.70;16.05;;;;;;;6.32;50.92;91382.19;5030729;28;20034;-65
2022/03/16 07:25:48;;;;;;;29.05;11.82;;;;;;;6.23;51.95;91378.53;5030757;28;20037;-64
2022/03/16 07:28:14;;;;;;;11.65;6.72;;;;;;;6.10;51.68;91376.47;5030718;28;20410;-64
2022/03/16 07:30:41;;;;;;;16.77;7.45;;;;;;;5.88;52.67;91368.84;5030593;28;20522;-64
2022/03/16 07:33:08;;;;;;;22.02;7.95;;;;;;;5.80;53.57;91364.13;5030383;28;20097;-65
2022/03/16 07:35:35;;;;;;;25.42;8.82;;;;;;;5.86;53.61;91363.06;5030134;28;20026;-64
2022/03/16 07:38:02;;;;;;;37.15;15.43;;;;;;;5.75;54.31;91353.56;5030508;28;20032;-64
2022/03/16 07:40:30;;;;;;;28.85;10.23;;;;;;;5.65;52.64;91364.94;5030799;28;20029;-65
2022/03/16 07:42:56;;;;;;;37.50;13.85;;;;;;;5.55;52.89;91368.41;5030328;28;20057;-64
2022/03/16 07:45:23;;;;;;;40.42;12.32;;;;;;;5.38;52.52;91362.63;5030471;28;20041;-64
2022/03/16 07:47:50;;;;;;;40.53;12.02;;;;;;;5.31;53.50;91364.75;5030418;28;20036;-65
2022/03/16 07:50:19;;;;;;;72.93;15.70;;;;;;;5.28;53.84;91366.06;5030140;28;20045;-64
2022/03/16 07:52:45;;;;;;;96.50;16.63;;;;;;;5.19;53.60;91362.38;5030314;28;20044;-64
2022/03/16 07:55:13;;;;;;;55.97;13.20;;;;;;;5.23;54.08;91367.91;5030274;28;20508;-64
2022/03/16 07:57:39;;;;;;;27.38;9.75;;;;;;;5.38;53.27;91366.06;5030438;28;20064;-64
2022/03/16 08:00:07;;;;;;;23.38;10.63;;;;;;;5.63;52.27;91362.56;5030240;28;20503;-64
2022/03/16 08:02:33;;;;;;;26.42;14.43;;;;;;;5.72;52.50;91358.34;5030203;28;20045;-64
2022/03/16 08:05:00;;;;;;;63.25;17.73;;;;;;;5.74;53.56;91358.06;5029980;28;20040;-64
2022/03/16 08:07:29;;;;;;;33.72;16.48;;;;;;;5.82;53.11;91356.72;5030319;28;20396;-64
2022/03/16 08:09:58;;;;;;;28.75;12.60;;;;;;;5.84;52.86;91351.94;5032464;28;20029;-64
2022/03/16 08:12:24;;;;;;;113.03;19.10;;;;;;;5.88;52.62;91353.81;5041677;28;20033;-64
2022/03/16 08:14:50;;;;;;;25.33;14.18;;;;;;;5.84;52.24;91363.31;5050326;28;20076;-64
2022/03/16 08:17:15;;;;;;;31.90;11.65;;;;;;;5.80;51.52;91356.19;5050121;28;20528;-64
2022/03/16 08:19:41;;;;;;;18.95;9.98;;;;;;;5.98;51.25;91356.41;5050632;28;20044;-64
2022/03/16 08:22:07;;;;;;;48.60;17.13;;;;;;;6.01;51.95;91357.75;5043426;28;20033;-64
2022/03/16 08:24:32;;;;;;;40.47;12.38;;;;;;;6.09;51.68;91365.09;5041577;28;20041;-65
2022/03/16 08:26:58;;;;;;;34.40;18.38;;;;;;;6.20;51.63;91363.22;5037972;28;20425;-64
2022/03/16 08:29:23;;;;;;;22.83;14.02;;;;;;;6.38;50.93;91338.03;5042328;28;20025;-64
2022/03/16 08:31:48;;;;;;;27.45;12.38;;;;;;;6.93;49.21;91367.81;5046598;28;20478;-64
2022/03/16 08:34:14;;;;;;;24.38;10.55;;;;;;;7.29;48.08;91355.91;5048102;28;20799;-65
2022/03/16 08:36:39;;;;;;;37.70;17.30;;;;;;;7.59;48.25;91354.06;5041269;28;20037;-64
2022/03/16 08:39:06;;;;;;;31.73;15.13;;;;;;;7.69;47.54;91352.09;5033491;28;20041;-65
2022/03/16 08:41:32;;;;;;;31.05;12.43;;;;;;;7.64;48.24;91340.78;5033047;28;20042;-65
2022/03/16 08:43:58;;;;;;;27.98;17.13;;;;;;;7.77;47.58;91345.41;5033122;28;20046;-65
2022/03/16 08:46:23;;;;;;;25.42;16.15;;;;;;;7.77;46.82;91345.41;5033368;28;20038;-65
2022/03/16 08:48:49;;;;;;;35.28;14.70;;;;;;;7.68;48.97;91342.56;5037138;28;20034;-65
2022/03/16 08:51:14;;;;;;;23.90;12.63;;;;;;;7.65;48.55;91343.13;5046400;28;20028;-65
2022/03/16 08:53:40;;;;;;;22.55;13.05;;;;;;;7.46;47.74;91340.41;5048798;28;20425;-65
2022/03/16 08:56:05;;;;;;;32.60;15.93;;;;;;;7.57;47.96;91327.06;5053028;28;20033;-65
2022/03/16 08:58:31;;;;;;;33.70;19.45;;;;;;;7.79;46.89;91336.09;5053063;28;20033;-65
2022/03/16 09:00:56;;;;;;;32.17;14.73;;;;;;;7.81;47.15;91331.31;5048947;28;20040;-65
2022/03/16 09:03:22;;;;;;;55.60;26.45;;;;;;;7.63;48.52;91329.38;5052105;28;20033;-64
2022/03/16 09:05:48;;;;;;;21.45;9.70;;;;;;;7.73;46.41;91336.44;5052702;28;20060;-63
2022/03/16 09:08:14;;;;;;;21.17;12.50;;;;;;;7.73;46.62;91341.72;5053173;28;20040;-63
2022/03/16 09:10:39;;;;;;;20.52;8.20;;;;;;;7.67;46.94;91340.19;5052725;28;20170;-64
2022/03/16 09:13:06;;;;;;;13.65;8.20;;;;;;;7.63;46.85;91339.97;5052612;28;20033;-63
2022/03/16 09:15:32;;;;;;;19.15;8.38;;;;;;;7.55;47.36;91332.63;5052685;28;20047;-63
2022/03/16 09:17:58;;;;;;;23.25;10.40;;;;;;;7.88;46.63;91333.63;5052272;28;20041;-65
2022/03/16 09:20:24;;;;;;;18.58;9.18;;;;;;;7.94;46.84;91319.25;5052693;28;20033;-64
2022/03/16 09:22:50;;;;;;;29.70;14.35;;;;;;;8.31;46.07;91312.44;5052390;28;20097;-63
2022/03/16 09:25:15;;;;;;;31.75;14.02;;;;;;;8.68;45.36;91325.00;5051899;28;20033;-63
2022/03/16 09:27:41;;;;;;;36.22;14.35;;;;;;;8.91;45.19;91315.38;5052339;28;20041;-64
2022/03/16 09:30:07;;;;;;;31.95;16.52;;;;;;;9.04;44.51;91313.84;5052075;28;20032;-64
2022/03/16 09:32:33;;;;;;;23.27;12.50;;;;;;;9.00;43.82;91311.78;5052166;28;20041;-64
2022/03/16 09:34:59;;;;;;;23.10;10.35;;;;;;;8.93;43.61;91306.03;5051686;28;20037;-64
2022/03/16 09:37:25;;;;;;;20.83;8.48;;;;;;;9.12;42.72;91310.53;5052263;28;20609;-63
2022/03/16 09:39:51;;;;;;;33.28;14.02;;;;;;;9.42;43.16;91310.03;5052298;28;20116;-64
2022/03/16 09:42:19;;;;;;;29.60;12.15;;;;;;;9.19;43.07;91310.94;5051841;28;20086;-64
2022/03/16 09:44:46;;;;;;;12.52;6.43;;;;;;;9.32;42.25;91304.91;5052104;28;20037;-64
2022/03/16 09:47:12;;;;;;;28.48;10.95;;;;;;;9.52;43.06;91309.84;5052012;28;20033;-63
2022/03/16 09:49:38;;;;;;;132.82;15.95;;;;;;;9.17;45.12;91316.56;5051289;28;20033;-63
2022/03/16 09:52:07;;;;;;;69.43;18.67;;;;;;;9.33;43.62;91311.00;5051851;28;20041;-63
2022/03/16 09:54:33;;;;;;;73.35;20.60;;;;;;;8.97;44.49;91299.06;5051902;28;20505;-64
2022/03/16 09:56:59;;;;;;;24.73;12.20;;;;;;;8.64;44.97;91311.50;5051873;28;20056;-64
2022/03/16 09:59:24;;;;;;;29.65;12.55;;;;;;;8.77;46.10;91309.19;5051886;28;20037;-64
2022/03/16 10:02:09;;;;;;;29.30;14.45;;;;;;;8.63;45.48;91317.88;5051731;28;20112;-63
2022/03/16 10:04:36;;;;;;;37.47;10.65;;;;;;;8.68;45.34;91312.53;5051329;28;20103;-64
2022/03/16 10:07:04;;;;;;;18.73;8.48;;;;;;;8.57;45.26;91315.59;5051636;28;20460;-65
2022/03/16 10:15:12;;;;;;;83.30;14.77;;;;;;;8.84;47.14;91299.81;5051405;28;20055;-63
2022/03/16 10:17:44;;;;;;;65.18;16.75;;;;;;;8.98;47.26;91299.84;5050996;28;20120;-63
2022/03/16 10:20:27;;;;;;;22.40;9.43;;;;;;;8.77;46.84;91304.69;5051532;28;20517;-63
2022/03/16 10:23:01;;;;;;;62.38;17.05;;;;;;;8.31;47.13;91307.16;5051375;28;20784;-63
2022/03/16 10:25:29;;;;;;;36.85;11.48;;;;;;;8.03;47.89;91299.00;5051227;28;20128;-62
2022/03/16 10:28:10;;;;;;;49.85;16.60;;;;;;;7.93;48.98;91301.78;5051392;28;20037;-64
2022/03/16 10:30:40;;;;;;;37.88;11.95;;;;;;;8.08;48.87;91303.47;5051132;28;20038;-63
2022/03/16 10:33:05;;;;;;;29.15;11.30;;;;;;;8.02;47.72;91302.72;5050621;28;20093;-66
2022/03/16 10:35:31;;;;;;;191.02;21.92;;;;;;;7.98;47.72;91290.34;5051154;28;20044;-63
2022/03/16 10:38:08;;;;;;;58.65;28.35;;;;;;;8.13;48.78;91298.09;5050996;28;20029;-63
2022/03/16 10:40:34;;;;;;;79.72;12.25;;;;;;;8.06;47.67;91301.09;5066232;28;20430;-62
2022/03/16 10:48:56;;;;;;;33.53;14.35;;;;;;;7.58;49.01;91289.75;5050801;28;20052;-61
2022/03/16 10:51:22;;;;;;;36.45;9.95;;;;;;;7.59;49.29;91290.53;5050702;28;20037;-61
2022/03/16 10:53:50;;;;;;;73.25;17.48;;;;;;;7.60;49.96;91270.91;5050925;28;20466;-62
2022/03/16 10:56:18;;;;;;;35.80;16.08;;;;;;;7.46;50.52;91279.53;5051088;28;20061;-61
2022/03/16 10:58:46;;;;;;;65.13;17.42;;;;;;;7.28;51.65;91274.94;5050915;28;20091;-61
2022/03/16 11:01:14;;;;;;;37.63;15.40;;;;;;;7.12;52.27;91281.47;5050249;28;20044;-62
2022/03/16 11:03:43;;;;;;;56.85;19.40;;;;;;;7.08;52.16;91280.41;5051200;28;20044;-62
2022/03/16 11:06:09;;;;;;;33.40;13.18;;;;;;;7.05;52.77;91281.75;5051638;28;20160;-63
2022/03/16 11:08:37;;;;;;;43.22;19.95;;;;;;;7.08;53.27;91277.75;5050491;28;20064;-62
2022/03/16 11:13:28;;;;;;;52.95;21.55;;;;;;;7.02;53.69;91277.03;5050403;28;20473;-62
2022/03/16 11:13:51;;;;;;;123.60;17.73;;;;;;;7.05;54.98;91283.63;5050027;28;20033;-62
2022/03/16 11:16:21;;;;;;;19.30;11.07;;;;;;;7.24;57.63;91283.72;5050158;28;20070;-62
2022/03/16 11:18:51;;;;;;;221.75;19.30;;;;;;;7.56;58.33;91280.47;5065195;28;20068;-61
2022/03/16 11:21:25;;;;;;;12.30;6.68;;;;;;;7.99;57.10;91263.56;5050056;28;20059;-61
2022/03/16 11:26:45;;;;;;;34.80;13.65;;;;;;;8.48;57.04;91259.75;5048772;28;20549;-62
2022/03/16 11:29:27;;;;;;;18.90;7.70;;;;;;;8.65;55.57;91260.03;5049238;28;20037;-62
2022/03/16 11:32:11;;;;;;;84.88;14.77;;;;;;;9.13;53.80;91254.50;5049168;28;20029;-60
2022/03/16 11:34:37;;;;;;;27.95;11.07;;;;;;;9.53;53.08;91249.56;5049956;28;20429;-61
2022/03/16 11:37:07;;;;;;;75.10;12.02;;;;;;;9.50;52.63;91245.63;5049706;28;20041;-62
2022/03/16 11:39:47;;;;;;;22.45;8.68;;;;;;;9.57;53.25;91245.22;5049935;28;20029;-61
2022/03/16 11:42:18;;;;;;;29.23;9.13;;;;;;;9.76;53.13;91232.63;5049459;28;20041;-61